sensor_id;sensor_type;location;lat;lon;timestamp;P1;durP1;ratioP1;P2;durP2;ratioP2
65855;SDS011;52631;42.208;24.656;2024-03-29T00:01:16;8.45;;;2.72;;
65855;SDS011;52631;42.208;24.656;2024-03-29T00:03:41;7.05;;;2.35;;
65855;SDS011;52631;42.208;24.656;2024-03-29T00:06:08;7.55;;;2.60;;
65855;SDS011;52631;42.208;24.656;2024-03-29T00:08:33;10.13;;;2.33;;
65855;SDS011;52631;42.208;24.656;2024-03-29T00:10:58;8.10;;;3.00;;
65855;SDS011;52631;42.208;24.656;2024-03-29T00:13:24;6.28;;;2.60;;
65855;SDS011;52631;42.208;24.656;2024-03-29T00:15:50;6.88;;;2.60;;
65855;SDS011;52631;42.208;24.656;2024-03-29T00:18:15;7.15;;;2.45;;
65855;SDS011;52631;42.208;24.656;2024-03-29T00:20:40;7.50;;;2.80;;
65855;SDS011;52631;42.208;24.656;2024-03-29T00:23:06;6.03;;;2.97;;
65855;SDS011;52631;42.208;24.656;2024-03-29T00:25:32;5.97;;;2.42;;
65855;SDS011;52631;42.208;24.656;2024-03-29T00:27:57;5.75;;;2.42;;
65855;SDS011;52631;42.208;24.656;2024-03-29T00:30:22;5.70;;;2.33;;
65855;SDS011;52631;42.208;24.656;2024-03-29T00:32:48;5.85;;;2.13;;
65855;SDS011;52631;42.208;24.656;2024-03-29T00:35:13;8.48;;;2.78;;
65855;SDS011;52631;42.208;24.656;2024-03-29T00:37:40;6.55;;;2.38;;
65855;SDS011;52631;42.208;24.656;2024-03-29T00:40:06;5.70;;;2.10;;
65855;SDS011;52631;42.208;24.656;2024-03-29T00:42:31;4.82;;;1.95;;
65855;SDS011;52631;42.208;24.656;2024-03-29T00:44:57;5.53;;;2.45;;
65855;SDS011;52631;42.208;24.656;2024-03-29T00:47:22;10.25;;;2.80;;
65855;SDS011;52631;42.208;24.656;2024-03-29T00:49:48;5.82;;;2.05;;
65855;SDS011;52631;42.208;24.656;2024-03-29T00:54:46;3.90;;;1.58;;
65855;SDS011;52631;42.208;24.656;2024-03-29T00:57:12;7.30;;;2.13;;
65855;SDS011;52631;42.208;24.656;2024-03-29T00:59:39;6.00;;;1.98;;
65855;SDS011;52631;42.208;24.656;2024-03-29T01:02:05;5.93;;;1.58;;
65855;SDS011;52631;42.208;24.656;2024-03-29T01:04:30;5.95;;;1.77;;
65855;SDS011;52631;42.208;24.656;2024-03-29T01:06:55;9.40;;;2.10;;
65855;SDS011;52631;42.208;24.656;2024-03-29T01:09:21;3.40;;;1.40;;
65855;SDS011;52631;42.208;24.656;2024-03-29T01:11:47;6.93;;;1.73;;
65855;SDS011;52631;42.208;24.656;2024-03-29T01:14:12;5.03;;;1.52;;
65855;SDS011;52631;42.208;24.656;2024-03-29T01:16:37;5.60;;;1.80;;
65855;SDS011;52631;42.208;24.656;2024-03-29T01:19:03;5.22;;;1.67;;
65855;SDS011;52631;42.208;24.656;2024-03-29T01:21:30;4.78;;;1.90;;
65855;SDS011;52631;42.208;24.656;2024-03-29T01:23:55;4.75;;;1.52;;
65855;SDS011;52631;42.208;24.656;2024-03-29T01:26:20;3.63;;;1.40;;
65855;SDS011;52631;42.208;24.656;2024-03-29T01:28:46;5.32;;;1.50;;
65855;SDS011;52631;42.208;24.656;2024-03-29T01:31:11;2.88;;;1.20;;
65855;SDS011;52631;42.208;24.656;2024-03-29T01:33:37;4.55;;;1.27;;
65855;SDS011;52631;42.208;24.656;2024-03-29T01:36:05;6.25;;;1.70;;
65855;SDS011;52631;42.208;24.656;2024-03-29T01:38:30;3.47;;;1.20;;
65855;SDS011;52631;42.208;24.656;2024-03-29T01:40:56;4.95;;;1.23;;
65855;SDS011;52631;42.208;24.656;2024-03-29T01:43:22;4.18;;;1.30;;
65855;SDS011;52631;42.208;24.656;2024-03-29T01:45:48;2.97;;;1.13;;
65855;SDS011;52631;42.208;24.656;2024-03-29T01:48:15;6.70;;;1.45;;
65855;SDS011;52631;42.208;24.656;2024-03-29T01:50:42;3.10;;;1.70;;
65855;SDS011;52631;42.208;24.656;2024-03-29T01:53:08;8.35;;;1.30;;
65855;SDS011;52631;42.208;24.656;2024-03-29T01:55:34;3.92;;;1.20;;
65855;SDS011;52631;42.208;24.656;2024-03-29T01:58:00;3.63;;;1.10;;
65855;SDS011;52631;42.208;24.656;2024-03-29T02:00:26;3.33;;;1.23;;
65855;SDS011;52631;42.208;24.656;2024-03-29T02:02:52;2.78;;;1.20;;
65855;SDS011;52631;42.208;24.656;2024-03-29T02:05:18;2.83;;;1.05;;
65855;SDS011;52631;42.208;24.656;2024-03-29T02:07:43;4.63;;;1.48;;
65855;SDS011;52631;42.208;24.656;2024-03-29T02:10:12;3.40;;;1.10;;
65855;SDS011;52631;42.208;24.656;2024-03-29T02:12:38;2.40;;;1.02;;
65855;SDS011;52631;42.208;24.656;2024-03-29T02:15:04;5.50;;;1.52;;
65855;SDS011;52631;42.208;24.656;2024-03-29T02:17:30;2.40;;;1.20;;
65855;SDS011;52631;42.208;24.656;2024-03-29T02:19:56;3.53;;;1.30;;
65855;SDS011;52631;42.208;24.656;2024-03-29T02:22:22;3.60;;;1.25;;
65855;SDS011;52631;42.208;24.656;2024-03-29T02:24:49;8.05;;;1.40;;
65855;SDS011;52631;42.208;24.656;2024-03-29T02:27:14;3.17;;;1.20;;
65855;SDS011;52631;42.208;24.656;2024-03-29T02:29:40;4.07;;;1.30;;
65855;SDS011;52631;42.208;24.656;2024-03-29T02:32:06;5.68;;;1.38;;
65855;SDS011;52631;42.208;24.656;2024-03-29T02:34:31;5.43;;;1.40;;
65855;SDS011;52631;42.208;24.656;2024-03-29T02:36:56;3.63;;;1.50;;
65855;SDS011;52631;42.208;24.656;2024-03-29T02:39:22;4.10;;;1.40;;
65855;SDS011;52631;42.208;24.656;2024-03-29T02:41:48;2.35;;;1.20;;
65855;SDS011;52631;42.208;24.656;2024-03-29T02:44:13;3.03;;;1.23;;
65855;SDS011;52631;42.208;24.656;2024-03-29T02:46:41;3.08;;;1.65;;
65855;SDS011;52631;42.208;24.656;2024-03-29T02:49:07;3.05;;;1.42;;
65855;SDS011;52631;42.208;24.656;2024-03-29T02:51:32;4.85;;;1.73;;
65855;SDS011;52631;42.208;24.656;2024-03-29T02:53:58;7.50;;;1.80;;
65855;SDS011;52631;42.208;24.656;2024-03-29T02:56:23;7.55;;;1.70;;
65855;SDS011;52631;42.208;24.656;2024-03-29T02:58:48;5.47;;;1.35;;
65855;SDS011;52631;42.208;24.656;2024-03-29T03:01:14;5.43;;;1.60;;
65855;SDS011;52631;42.208;24.656;2024-03-29T03:03:39;4.78;;;1.40;;
65855;SDS011;52631;42.208;24.656;2024-03-29T03:06:05;4.63;;;1.50;;
65855;SDS011;52631;42.208;24.656;2024-03-29T03:08:30;5.55;;;1.33;;
65855;SDS011;52631;42.208;24.656;2024-03-29T03:11:15;7.15;;;2.10;;
65855;SDS011;52631;42.208;24.656;2024-03-29T03:13:40;5.20;;;1.77;;
65855;SDS011;52631;42.208;24.656;2024-03-29T03:16:06;6.53;;;1.90;;
65855;SDS011;52631;42.208;24.656;2024-03-29T03:18:31;4.97;;;1.58;;
65855;SDS011;52631;42.208;24.656;2024-03-29T03:20:57;6.13;;;1.67;;
65855;SDS011;52631;42.208;24.656;2024-03-29T03:23:23;6.05;;;1.80;;
65855;SDS011;52631;42.208;24.656;2024-03-29T03:25:59;6.07;;;1.60;;
65855;SDS011;52631;42.208;24.656;2024-03-29T03:28:26;5.45;;;1.60;;
65855;SDS011;52631;42.208;24.656;2024-03-29T03:30:52;7.13;;;1.80;;
65855;SDS011;52631;42.208;24.656;2024-03-29T03:33:18;10.05;;;2.22;;
65855;SDS011;52631;42.208;24.656;2024-03-29T03:35:44;6.22;;;1.83;;
65855;SDS011;52631;42.208;24.656;2024-03-29T03:38:10;5.43;;;1.58;;
65855;SDS011;52631;42.208;24.656;2024-03-29T03:40:36;4.05;;;1.35;;
65855;SDS011;52631;42.208;24.656;2024-03-29T03:43:02;6.45;;;1.63;;
65855;SDS011;52631;42.208;24.656;2024-03-29T03:45:28;3.17;;;1.00;;
65855;SDS011;52631;42.208;24.656;2024-03-29T03:47:58;2.20;;;0.90;;
65855;SDS011;52631;42.208;24.656;2024-03-29T03:50:24;5.80;;;1.48;;
65855;SDS011;52631;42.208;24.656;2024-03-29T03:52:49;6.43;;;1.08;;
65855;SDS011;52631;42.208;24.656;2024-03-29T03:55:14;4.25;;;1.20;;
65855;SDS011;52631;42.208;24.656;2024-03-29T03:57:40;4.65;;;1.55;;
65855;SDS011;52631;42.208;24.656;2024-03-29T04:00:06;9.07;;;1.63;;
65855;SDS011;52631;42.208;24.656;2024-03-29T04:02:32;3.08;;;1.30;;
65855;SDS011;52631;42.208;24.656;2024-03-29T04:04:57;5.82;;;1.48;;
65855;SDS011;52631;42.208;24.656;2024-03-29T04:07:23;3.03;;;1.15;;
65855;SDS011;52631;42.208;24.656;2024-03-29T04:09:52;4.43;;;1.13;;
65855;SDS011;52631;42.208;24.656;2024-03-29T04:12:18;2.88;;;1.35;;
65855;SDS011;52631;42.208;24.656;2024-03-29T04:14:43;4.75;;;1.30;;
65855;SDS011;52631;42.208;24.656;2024-03-29T04:17:09;3.78;;;1.40;;
65855;SDS011;52631;42.208;24.656;2024-03-29T04:19:35;3.38;;;1.63;;
65855;SDS011;52631;42.208;24.656;2024-03-29T04:22:00;4.78;;;1.52;;
65855;SDS011;52631;42.208;24.656;2024-03-29T04:24:27;4.60;;;2.17;;
65855;SDS011;52631;42.208;24.656;2024-03-29T04:26:53;3.97;;;1.30;;
65855;SDS011;52631;42.208;24.656;2024-03-29T04:29:18;5.47;;;1.52;;
65855;SDS011;52631;42.208;24.656;2024-03-29T04:31:45;6.30;;;1.70;;
65855;SDS011;52631;42.208;24.656;2024-03-29T04:34:10;5.43;;;2.15;;
65855;SDS011;52631;42.208;24.656;2024-03-29T04:36:36;4.60;;;1.90;;
65855;SDS011;52631;42.208;24.656;2024-03-29T04:39:01;4.57;;;1.70;;
65855;SDS011;52631;42.208;24.656;2024-03-29T04:41:27;5.70;;;1.98;;
65855;SDS011;52631;42.208;24.656;2024-03-29T04:43:52;5.85;;;2.33;;
65855;SDS011;52631;42.208;24.656;2024-03-29T04:46:18;6.90;;;1.75;;
65855;SDS011;52631;42.208;24.656;2024-03-29T04:48:43;5.03;;;1.50;;
65855;SDS011;52631;42.208;24.656;2024-03-29T04:51:10;5.07;;;1.85;;
65855;SDS011;52631;42.208;24.656;2024-03-29T04:53:36;3.00;;;1.38;;
65855;SDS011;52631;42.208;24.656;2024-03-29T04:56:03;6.97;;;1.80;;
65855;SDS011;52631;42.208;24.656;2024-03-29T04:58:29;6.25;;;1.85;;
65855;SDS011;52631;42.208;24.656;2024-03-29T05:00:54;6.45;;;1.58;;
65855;SDS011;52631;42.208;24.656;2024-03-29T05:03:20;7.57;;;2.35;;
65855;SDS011;52631;42.208;24.656;2024-03-29T05:05:50;7.53;;;1.58;;
65855;SDS011;52631;42.208;24.656;2024-03-29T05:08:16;9.18;;;2.10;;
65855;SDS011;52631;42.208;24.656;2024-03-29T05:10:43;7.20;;;1.85;;
65855;SDS011;52631;42.208;24.656;2024-03-29T05:13:08;8.40;;;1.90;;
65855;SDS011;52631;42.208;24.656;2024-03-29T05:15:34;7.70;;;2.20;;
65855;SDS011;52631;42.208;24.656;2024-03-29T05:17:59;7.72;;;2.38;;
65855;SDS011;52631;42.208;24.656;2024-03-29T05:20:25;5.50;;;2.08;;
65855;SDS011;52631;42.208;24.656;2024-03-29T05:22:50;8.27;;;2.22;;
65855;SDS011;52631;42.208;24.656;2024-03-29T05:25:16;6.60;;;2.60;;
65855;SDS011;52631;42.208;24.656;2024-03-29T05:27:41;7.95;;;2.10;;
65855;SDS011;52631;42.208;24.656;2024-03-29T05:30:07;8.23;;;2.25;;
65855;SDS011;52631;42.208;24.656;2024-03-29T05:32:34;6.63;;;2.00;;
65855;SDS011;52631;42.208;24.656;2024-03-29T05:35:00;6.05;;;2.13;;
65855;SDS011;52631;42.208;24.656;2024-03-29T05:37:26;4.65;;;1.70;;
65855;SDS011;52631;42.208;24.656;2024-03-29T05:39:51;5.55;;;1.70;;
65855;SDS011;52631;42.208;24.656;2024-03-29T05:42:27;4.90;;;1.20;;
65855;SDS011;52631;42.208;24.656;2024-03-29T05:44:52;3.33;;;1.90;;
65855;SDS011;52631;42.208;24.656;2024-03-29T05:47:18;6.55;;;2.38;;
65855;SDS011;52631;42.208;24.656;2024-03-29T05:49:44;7.32;;;1.83;;
65855;SDS011;52631;42.208;24.656;2024-03-29T05:52:09;5.35;;;1.35;;
65855;SDS011;52631;42.208;24.656;2024-03-29T05:54:38;3.00;;;1.02;;
65855;SDS011;52631;42.208;24.656;2024-03-29T05:57:13;3.92;;;1.45;;
65855;SDS011;52631;42.208;24.656;2024-03-29T05:59:38;4.68;;;1.33;;
65855;SDS011;52631;42.208;24.656;2024-03-29T06:02:04;3.92;;;1.52;;
65855;SDS011;52631;42.208;24.656;2024-03-29T06:04:30;4.70;;;1.40;;
65855;SDS011;52631;42.208;24.656;2024-03-29T06:06:59;4.47;;;1.27;;
65855;SDS011;52631;42.208;24.656;2024-03-29T06:09:24;6.60;;;1.27;;
65855;SDS011;52631;42.208;24.656;2024-03-29T06:11:50;4.43;;;1.45;;
65855;SDS011;52631;42.208;24.656;2024-03-29T06:14:16;4.90;;;1.35;;
65855;SDS011;52631;42.208;24.656;2024-03-29T06:17:00;3.42;;;1.30;;
65855;SDS011;52631;42.208;24.656;2024-03-29T06:19:45;3.40;;;1.20;;
65855;SDS011;52631;42.208;24.656;2024-03-29T06:22:10;5.70;;;1.50;;
65855;SDS011;52631;42.208;24.656;2024-03-29T06:24:36;3.33;;;1.30;;
65855;SDS011;52631;42.208;24.656;2024-03-29T06:27:01;4.90;;;1.02;;
65855;SDS011;52631;42.208;24.656;2024-03-29T06:29:26;8.25;;;1.42;;
65855;SDS011;52631;42.208;24.656;2024-03-29T06:31:52;2.92;;;1.10;;
65855;SDS011;52631;42.208;24.656;2024-03-29T06:34:17;7.47;;;1.58;;
65855;SDS011;52631;42.208;24.656;2024-03-29T06:36:43;5.28;;;1.50;;
65855;SDS011;52631;42.208;24.656;2024-03-29T06:39:08;2.50;;;0.90;;
65855;SDS011;52631;42.208;24.656;2024-03-29T06:41:34;3.05;;;1.35;;
65855;SDS011;52631;42.208;24.656;2024-03-29T06:43:59;8.13;;;1.45;;
65855;SDS011;52631;42.208;24.656;2024-03-29T06:46:25;3.20;;;1.42;;
65855;SDS011;52631;42.208;24.656;2024-03-29T06:48:51;2.83;;;1.00;;
65855;SDS011;52631;42.208;24.656;2024-03-29T06:51:16;4.45;;;1.13;;
65855;SDS011;52631;42.208;24.656;2024-03-29T06:53:42;4.30;;;1.40;;
65855;SDS011;52631;42.208;24.656;2024-03-29T06:56:07;4.35;;;1.00;;
65855;SDS011;52631;42.208;24.656;2024-03-29T06:58:32;3.30;;;1.35;;
65855;SDS011;52631;42.208;24.656;2024-03-29T07:00:58;3.08;;;1.17;;
65855;SDS011;52631;42.208;24.656;2024-03-29T07:03:24;4.38;;;1.23;;
65855;SDS011;52631;42.208;24.656;2024-03-29T07:05:49;3.85;;;1.10;;
65855;SDS011;52631;42.208;24.656;2024-03-29T07:08:15;2.88;;;1.02;;
65855;SDS011;52631;42.208;24.656;2024-03-29T07:10:40;3.30;;;1.20;;
65855;SDS011;52631;42.208;24.656;2024-03-29T07:13:06;2.60;;;1.00;;
65855;SDS011;52631;42.208;24.656;2024-03-29T07:15:32;2.38;;;0.90;;
65855;SDS011;52631;42.208;24.656;2024-03-29T07:17:59;4.22;;;1.30;;
65855;SDS011;52631;42.208;24.656;2024-03-29T07:20:25;4.20;;;1.00;;
65855;SDS011;52631;42.208;24.656;2024-03-29T07:22:51;5.97;;;1.33;;
65855;SDS011;52631;42.208;24.656;2024-03-29T07:25:17;4.00;;;0.98;;
65855;SDS011;52631;42.208;24.656;2024-03-29T07:27:42;5.65;;;1.20;;
65855;SDS011;52631;42.208;24.656;2024-03-29T07:30:09;5.32;;;1.17;;
65855;SDS011;52631;42.208;24.656;2024-03-29T07:32:36;5.65;;;1.17;;
65855;SDS011;52631;42.208;24.656;2024-03-29T07:35:01;6.03;;;1.67;;
65855;SDS011;52631;42.208;24.656;2024-03-29T07:37:28;7.20;;;2.35;;
65855;SDS011;52631;42.208;24.656;2024-03-29T07:39:53;8.32;;;1.83;;
65855;SDS011;52631;42.208;24.656;2024-03-29T07:42:18;4.60;;;1.40;;
65855;SDS011;52631;42.208;24.656;2024-03-29T07:44:44;6.63;;;1.55;;
65855;SDS011;52631;42.208;24.656;2024-03-29T07:47:10;5.80;;;1.33;;
65855;SDS011;52631;42.208;24.656;2024-03-29T07:49:38;4.22;;;1.08;;
65855;SDS011;52631;42.208;24.656;2024-03-29T07:52:03;3.80;;;1.10;;
65855;SDS011;52631;42.208;24.656;2024-03-29T07:54:30;2.88;;;1.10;;
65855;SDS011;52631;42.208;24.656;2024-03-29T07:56:59;6.30;;;1.10;;
65855;SDS011;52631;42.208;24.656;2024-03-29T07:59:26;4.50;;;1.15;;
65855;SDS011;52631;42.208;24.656;2024-03-29T08:01:51;5.43;;;1.10;;
65855;SDS011;52631;42.208;24.656;2024-03-29T08:04:17;5.00;;;1.23;;
65855;SDS011;52631;42.208;24.656;2024-03-29T08:06:43;3.10;;;0.95;;
65855;SDS011;52631;42.208;24.656;2024-03-29T08:09:08;3.53;;;1.30;;
65855;SDS011;52631;42.208;24.656;2024-03-29T08:11:35;2.45;;;0.93;;
65855;SDS011;52631;42.208;24.656;2024-03-29T08:14:00;3.05;;;0.88;;
65855;SDS011;52631;42.208;24.656;2024-03-29T08:16:26;4.82;;;1.17;;
65855;SDS011;52631;42.208;24.656;2024-03-29T08:18:51;3.90;;;0.95;;
65855;SDS011;52631;42.208;24.656;2024-03-29T08:21:17;3.13;;;1.05;;
65855;SDS011;52631;42.208;24.656;2024-03-29T08:23:43;2.50;;;1.08;;
65855;SDS011;52631;42.208;24.656;2024-03-29T08:26:11;3.88;;;1.05;;
65855;SDS011;52631;42.208;24.656;2024-03-29T08:28:37;3.50;;;1.00;;
65855;SDS011;52631;42.208;24.656;2024-03-29T08:31:03;4.40;;;0.90;;
65855;SDS011;52631;42.208;24.656;2024-03-29T08:33:30;3.45;;;1.08;;
65855;SDS011;52631;42.208;24.656;2024-03-29T08:35:56;5.18;;;1.15;;
65855;SDS011;52631;42.208;24.656;2024-03-29T08:38:22;4.13;;;0.85;;
65855;SDS011;52631;42.208;24.656;2024-03-29T08:40:48;2.95;;;0.95;;
65855;SDS011;52631;42.208;24.656;2024-03-29T08:43:14;2.72;;;1.00;;
65855;SDS011;52631;42.208;24.656;2024-03-29T08:45:44;2.47;;;0.90;;
65855;SDS011;52631;42.208;24.656;2024-03-29T08:48:09;4.07;;;1.00;;
65855;SDS011;52631;42.208;24.656;2024-03-29T08:50:35;4.80;;;1.00;;
65855;SDS011;52631;42.208;24.656;2024-03-29T08:53:02;2.15;;;1.00;;
65855;SDS011;52631;42.208;24.656;2024-03-29T08:55:28;2.65;;;0.82;;
65855;SDS011;52631;42.208;24.656;2024-03-29T08:57:55;3.63;;;0.82;;
65855;SDS011;52631;42.208;24.656;2024-03-29T09:00:21;2.80;;;0.70;;
65855;SDS011;52631;42.208;24.656;2024-03-29T09:02:47;4.85;;;1.00;;
65855;SDS011;52631;42.208;24.656;2024-03-29T09:05:12;3.45;;;0.77;;
65855;SDS011;52631;42.208;24.656;2024-03-29T09:07:37;2.22;;;0.80;;
65855;SDS011;52631;42.208;24.656;2024-03-29T09:10:04;2.53;;;0.65;;
65855;SDS011;52631;42.208;24.656;2024-03-29T09:12:29;1.95;;;0.77;;
65855;SDS011;52631;42.208;24.656;2024-03-29T09:14:55;3.90;;;1.08;;
65855;SDS011;52631;42.208;24.656;2024-03-29T09:17:20;3.17;;;0.80;;
65855;SDS011;52631;42.208;24.656;2024-03-29T09:19:49;7.15;;;1.20;;
65855;SDS011;52631;42.208;24.656;2024-03-29T09:22:15;2.67;;;0.70;;
65855;SDS011;52631;42.208;24.656;2024-03-29T09:24:41;1.73;;;0.70;;
65855;SDS011;52631;42.208;24.656;2024-03-29T09:27:06;2.80;;;0.80;;
65855;SDS011;52631;42.208;24.656;2024-03-29T09:29:32;3.60;;;0.88;;
65855;SDS011;52631;42.208;24.656;2024-03-29T09:31:57;4.10;;;0.98;;
65855;SDS011;52631;42.208;24.656;2024-03-29T09:34:22;3.65;;;0.80;;
65855;SDS011;52631;42.208;24.656;2024-03-29T09:36:48;2.17;;;0.90;;
65855;SDS011;52631;42.208;24.656;2024-03-29T09:39:14;3.28;;;0.90;;
65855;SDS011;52631;42.208;24.656;2024-03-29T09:41:39;4.60;;;0.98;;
65855;SDS011;52631;42.208;24.656;2024-03-29T09:44:09;2.17;;;0.80;;
65855;SDS011;52631;42.208;24.656;2024-03-29T09:46:36;5.30;;;0.75;;
65855;SDS011;52631;42.208;24.656;2024-03-29T09:49:04;4.60;;;0.80;;
65855;SDS011;52631;42.208;24.656;2024-03-29T09:51:31;4.15;;;0.95;;
65855;SDS011;52631;42.208;24.656;2024-03-29T09:53:57;2.63;;;0.80;;
65855;SDS011;52631;42.208;24.656;2024-03-29T09:56:27;2.42;;;0.75;;
65855;SDS011;52631;42.208;24.656;2024-03-29T09:58:53;1.85;;;0.60;;
65855;SDS011;52631;42.208;24.656;2024-03-29T10:01:18;2.30;;;0.80;;
65855;SDS011;52631;42.208;24.656;2024-03-29T10:03:50;1.85;;;0.60;;
65855;SDS011;52631;42.208;24.656;2024-03-29T10:06:16;2.03;;;0.73;;
65855;SDS011;52631;42.208;24.656;2024-03-29T10:08:44;2.00;;;0.75;;
65855;SDS011;52631;42.208;24.656;2024-03-29T10:11:10;3.13;;;0.70;;
65855;SDS011;52631;42.208;24.656;2024-03-29T10:13:35;2.35;;;0.90;;
65855;SDS011;52631;42.208;24.656;2024-03-29T10:16:03;2.63;;;0.70;;
65855;SDS011;52631;42.208;24.656;2024-03-29T10:18:28;3.08;;;0.70;;
65855;SDS011;52631;42.208;24.656;2024-03-29T10:20:58;2.92;;;1.20;;
65855;SDS011;52631;42.208;24.656;2024-03-29T10:23:30;3.20;;;0.80;;
65855;SDS011;52631;42.208;24.656;2024-03-29T10:25:56;5.63;;;0.80;;
65855;SDS011;52631;42.208;24.656;2024-03-29T10:28:22;2.53;;;0.70;;
65855;SDS011;52631;42.208;24.656;2024-03-29T10:30:48;1.63;;;0.70;;
65855;SDS011;52631;42.208;24.656;2024-03-29T10:33:14;2.42;;;0.90;;
65855;SDS011;52631;42.208;24.656;2024-03-29T10:35:43;5.55;;;0.70;;
65855;SDS011;52631;42.208;24.656;2024-03-29T10:38:09;3.75;;;0.70;;
65855;SDS011;52631;42.208;24.656;2024-03-29T10:40:36;3.05;;;0.70;;
65855;SDS011;52631;42.208;24.656;2024-03-29T10:43:03;1.92;;;0.70;;
65855;SDS011;52631;42.208;24.656;2024-03-29T10:45:34;4.00;;;0.70;;
65855;SDS011;52631;42.208;24.656;2024-03-29T10:48:00;1.45;;;0.68;;
65855;SDS011;52631;42.208;24.656;2024-03-29T10:50:25;3.35;;;0.70;;
65855;SDS011;52631;42.208;24.656;2024-03-29T10:52:51;3.85;;;0.98;;
65855;SDS011;52631;42.208;24.656;2024-03-29T10:55:17;2.65;;;0.70;;
65855;SDS011;52631;42.208;24.656;2024-03-29T10:57:42;3.38;;;0.90;;
65855;SDS011;52631;42.208;24.656;2024-03-29T11:05:17;1.73;;;0.90;;
65855;SDS011;52631;42.208;24.656;2024-03-29T11:07:43;3.13;;;0.70;;
65855;SDS011;52631;42.208;24.656;2024-03-29T11:10:29;4.32;;;1.48;;
65855;SDS011;52631;42.208;24.656;2024-03-29T11:15:50;2.58;;;0.80;;
65855;SDS011;52631;42.208;24.656;2024-03-29T11:18:15;3.28;;;0.75;;
65855;SDS011;52631;42.208;24.656;2024-03-29T11:20:44;2.40;;;0.80;;
65855;SDS011;52631;42.208;24.656;2024-03-29T11:23:14;3.22;;;0.77;;
65855;SDS011;52631;42.208;24.656;2024-03-29T11:25:41;3.42;;;0.85;;
65855;SDS011;52631;42.208;24.656;2024-03-29T11:28:07;5.22;;;0.90;;
65855;SDS011;52631;42.208;24.656;2024-03-29T11:30:46;4.32;;;0.90;;
65855;SDS011;52631;42.208;24.656;2024-03-29T11:33:29;5.47;;;1.25;;
65855;SDS011;52631;42.208;24.656;2024-03-29T11:36:11;4.90;;;0.90;;
65855;SDS011;52631;42.208;24.656;2024-03-29T11:38:38;4.22;;;0.93;;
65855;SDS011;52631;42.208;24.656;2024-03-29T11:41:05;2.90;;;0.88;;
65855;SDS011;52631;42.208;24.656;2024-03-29T11:43:32;5.90;;;1.45;;
65855;SDS011;52631;42.208;24.656;2024-03-29T11:45:59;3.80;;;1.10;;
65855;SDS011;52631;42.208;24.656;2024-03-29T11:48:28;4.13;;;1.10;;
65855;SDS011;52631;42.208;24.656;2024-03-29T11:50:56;2.95;;;1.05;;
65855;SDS011;52631;42.208;24.656;2024-03-29T11:53:22;2.90;;;1.00;;
65855;SDS011;52631;42.208;24.656;2024-03-29T11:55:48;2.92;;;0.90;;
65855;SDS011;52631;42.208;24.656;2024-03-29T11:58:22;4.10;;;1.38;;
65855;SDS011;52631;42.208;24.656;2024-03-29T12:00:48;5.07;;;1.75;;
65855;SDS011;52631;42.208;24.656;2024-03-29T12:03:15;3.17;;;1.27;;
65855;SDS011;52631;42.208;24.656;2024-03-29T12:05:42;3.55;;;1.50;;
65855;SDS011;52631;42.208;24.656;2024-03-29T12:08:08;5.07;;;1.70;;
65855;SDS011;52631;42.208;24.656;2024-03-29T12:10:35;5.47;;;1.58;;
65855;SDS011;52631;42.208;24.656;2024-03-29T12:13:01;4.32;;;1.20;;
65855;SDS011;52631;42.208;24.656;2024-03-29T12:15:27;3.67;;;1.27;;
65855;SDS011;52631;42.208;24.656;2024-03-29T12:17:57;4.07;;;1.48;;
65855;SDS011;52631;42.208;24.656;2024-03-29T12:20:22;4.40;;;1.67;;
65855;SDS011;52631;42.208;24.656;2024-03-29T12:22:48;3.83;;;1.60;;
65855;SDS011;52631;42.208;24.656;2024-03-29T12:25:13;5.18;;;1.50;;
65855;SDS011;52631;42.208;24.656;2024-03-29T12:27:39;4.47;;;1.40;;
65855;SDS011;52631;42.208;24.656;2024-03-29T12:30:05;4.55;;;1.40;;
65855;SDS011;52631;42.208;24.656;2024-03-29T12:32:31;4.63;;;1.42;;
65855;SDS011;52631;42.208;24.656;2024-03-29T12:35:09;8.18;;;1.30;;
65855;SDS011;52631;42.208;24.656;2024-03-29T12:37:37;3.13;;;1.23;;
65855;SDS011;52631;42.208;24.656;2024-03-29T12:40:06;4.38;;;1.42;;
65855;SDS011;52631;42.208;24.656;2024-03-29T12:42:43;4.10;;;1.02;;
65855;SDS011;52631;42.208;24.656;2024-03-29T12:45:09;4.47;;;1.45;;
65855;SDS011;52631;42.208;24.656;2024-03-29T12:47:35;4.18;;;1.15;;
65855;SDS011;52631;42.208;24.656;2024-03-29T12:50:01;2.60;;;0.85;;
65855;SDS011;52631;42.208;24.656;2024-03-29T12:52:35;9.20;;;1.30;;
65855;SDS011;52631;42.208;24.656;2024-03-29T12:55:04;12.52;;;1.65;;
65855;SDS011;52631;42.208;24.656;2024-03-29T12:57:30;6.15;;;1.10;;
65855;SDS011;52631;42.208;24.656;2024-03-29T12:59:56;4.47;;;1.17;;
65855;SDS011;52631;42.208;24.656;2024-03-29T13:02:21;3.30;;;0.93;;
65855;SDS011;52631;42.208;24.656;2024-03-29T13:04:48;5.25;;;1.10;;
65855;SDS011;52631;42.208;24.656;2024-03-29T13:07:13;3.88;;;1.15;;
65855;SDS011;52631;42.208;24.656;2024-03-29T13:09:40;3.85;;;1.20;;
65855;SDS011;52631;42.208;24.656;2024-03-29T13:12:05;3.92;;;1.10;;
65855;SDS011;52631;42.208;24.656;2024-03-29T13:14:31;4.45;;;0.90;;
65855;SDS011;52631;42.208;24.656;2024-03-29T13:16:57;2.95;;;0.80;;
65855;SDS011;52631;42.208;24.656;2024-03-29T13:19:22;2.92;;;0.80;;
65855;SDS011;52631;42.208;24.656;2024-03-29T13:21:47;3.40;;;0.82;;
65855;SDS011;52631;42.208;24.656;2024-03-29T13:24:13;3.38;;;0.90;;
65855;SDS011;52631;42.208;24.656;2024-03-29T13:26:38;4.15;;;1.40;;
65855;SDS011;52631;42.208;24.656;2024-03-29T13:29:04;4.47;;;0.90;;
65855;SDS011;52631;42.208;24.656;2024-03-29T13:31:30;7.13;;;1.30;;
65855;SDS011;52631;42.208;24.656;2024-03-29T13:33:56;6.65;;;1.00;;
65855;SDS011;52631;42.208;24.656;2024-03-29T13:36:29;3.33;;;1.00;;
65855;SDS011;52631;42.208;24.656;2024-03-29T13:38:55;5.13;;;1.10;;
65855;SDS011;52631;42.208;24.656;2024-03-29T13:41:20;3.67;;;1.05;;
65855;SDS011;52631;42.208;24.656;2024-03-29T13:43:46;5.35;;;1.10;;
65855;SDS011;52631;42.208;24.656;2024-03-29T13:46:12;3.65;;;1.00;;
65855;SDS011;52631;42.208;24.656;2024-03-29T13:48:37;3.38;;;0.80;;
65855;SDS011;52631;42.208;24.656;2024-03-29T13:51:03;4.13;;;1.17;;
65855;SDS011;52631;42.208;24.656;2024-03-29T13:53:28;4.80;;;0.98;;
65855;SDS011;52631;42.208;24.656;2024-03-29T13:55:59;10.35;;;1.20;;
65855;SDS011;52631;42.208;24.656;2024-03-29T13:58:26;11.50;;;1.95;;
65855;SDS011;52631;42.208;24.656;2024-03-29T14:00:52;5.07;;;1.15;;
65855;SDS011;52631;42.208;24.656;2024-03-29T14:03:20;3.67;;;0.80;;
65855;SDS011;52631;42.208;24.656;2024-03-29T14:05:47;7.93;;;1.05;;
65855;SDS011;52631;42.208;24.656;2024-03-29T14:08:13;4.22;;;1.00;;
65855;SDS011;52631;42.208;24.656;2024-03-29T14:10:39;3.70;;;1.00;;
65855;SDS011;52631;42.208;24.656;2024-03-29T14:13:04;2.47;;;0.95;;
65855;SDS011;52631;42.208;24.656;2024-03-29T14:15:31;2.05;;;0.70;;
65855;SDS011;52631;42.208;24.656;2024-03-29T14:17:56;2.58;;;0.85;;
65855;SDS011;52631;42.208;24.656;2024-03-29T14:20:22;3.38;;;0.80;;
65855;SDS011;52631;42.208;24.656;2024-03-29T14:22:47;3.35;;;0.70;;
65855;SDS011;52631;42.208;24.656;2024-03-29T14:25:19;2.55;;;0.90;;
65855;SDS011;52631;42.208;24.656;2024-03-29T14:27:45;5.63;;;0.73;;
65855;SDS011;52631;42.208;24.656;2024-03-29T14:30:19;3.63;;;0.98;;
65855;SDS011;52631;42.208;24.656;2024-03-29T14:32:50;3.17;;;0.80;;
65855;SDS011;52631;42.208;24.656;2024-03-29T14:35:16;4.90;;;1.65;;
65855;SDS011;52631;42.208;24.656;2024-03-29T14:37:42;4.05;;;0.90;;
65855;SDS011;52631;42.208;24.656;2024-03-29T14:40:08;2.60;;;1.02;;